Time;durP1;ratioP1;P1;durP2;ratioP2;P2;SDS_P1;SDS_P2;PMS_P1;PMS_P2;Temp;Humidity;BMP_temperature;BMP_pressure;BME280_temperature;BME280_humidity;BME280_pressure;Samples;Min_cycle;Max_cycle;Signal;HPM_P1;HPM_P2
2022/11/25 00:01:26;;;;;;;5.55;2.40;;;;;;;-3.28;71.05;100180.06;5021278;28;20037;-38
2022/11/25 00:03:54;;;;;;;4.95;2.42;;;;;;;-3.10;71.42;100202.63;5013999;28;20513;-39
2022/11/25 00:06:22;;;;;;;4.82;2.78;;;;;;;-3.10;71.36;100200.94;5021885;28;20104;-40
2022/11/25 00:09:02;;;;;;;6.65;2.45;;;;;;;-3.09;71.02;100207.72;5019284;28;20037;-38
2022/11/25 00:11:28;;;;;;;5.00;2.53;;;;;;;-3.06;71.68;100209.50;5004475;28;20384;-41
2022/11/25 00:13:54;;;;;;;6.72;2.92;;;;;;;-3.06;71.37;100202.75;5019983;28;20572;-41
2022/11/25 00:16:22;;;;;;;6.18;2.92;;;;;;;-2.97;71.39;100206.34;5020163;28;20124;-40
2022/11/25 00:18:52;;;;;;;6.32;3.05;;;;;;;-3.01;71.49;100201.19;5021438;28;20048;-42
2022/11/25 00:21:20;;;;;;;5.68;2.60;;;;;;;-3.04;71.79;100208.75;5004053;28;20064;-41
2022/11/25 00:23:55;;;;;;;7.88;2.92;;;;;;;-3.01;71.84;100206.28;5020262;28;20037;-40
2022/11/25 00:26:22;;;;;;;6.03;2.92;;;;;;;-2.97;71.92;100202.13;5005413;28;20045;-40
2022/11/25 00:28:48;;;;;;;6.32;3.05;;;;;;;-3.13;71.59;100175.41;5024399;28;20517;-40
2022/11/25 00:31:19;;;;;;;5.82;3.00;;;;;;;-3.11;71.77;100176.31;5022430;28;20128;-41
2022/11/25 00:33:46;;;;;;;5.63;2.53;;;;;;;-2.98;71.67;100212.28;5030067;28;20086;-39
2022/11/25 00:36:18;;;;;;;6.85;3.05;;;;;;;-3.19;71.99;100184.56;5005065;28;20052;-39
2022/11/25 00:38:44;;;;;;;5.90;3.10;;;;;;;-3.00;72.01;100209.69;5021723;28;20091;-40
2022/11/25 00:46:39;;;;;;;7.05;3.20;;;;;;;-2.95;72.16;100219.97;5026200;28;20045;-38
2022/11/25 00:49:06;;;;;;;7.55;3.00;;;;;;;-2.91;72.09;100222.66;5041308;28;20040;-41
2022/11/25 00:51:32;;;;;;;5.97;3.28;;;;;;;-3.06;72.37;100197.66;5024411;28;20063;-39
2022/11/25 00:53:58;;;;;;;7.97;3.30;;;;;;;-2.89;71.95;100225.25;5019754;28;20116;-40
2022/11/25 00:56:24;;;;;;;7.35;3.42;;;;;;;-2.88;72.05;100222.75;5019585;28;20531;-39
2022/11/25 00:58:52;;;;;;;5.00;2.83;;;;;;;-2.91;72.81;100230.28;5037880;28;20115;-39
2022/11/25 01:01:18;;;;;;;5.53;3.05;;;;;;;-2.96;72.92;100228.41;5002206;28;20833;-39
2022/11/25 01:03:44;;;;;;;7.10;3.22;;;;;;;-2.99;72.98;100231.75;5021544;28;20061;-39
2022/11/25 01:06:11;;;;;;;8.73;3.22;;;;;;;-2.98;73.04;100230.09;5004843;28;20128;-39
2022/11/25 01:08:37;;;;;;;7.40;3.22;;;;;;;-3.01;72.81;100228.28;5020272;28;20041;-39
2022/11/25 01:11:05;;;;;;;8.55;3.78;;;;;;;-2.98;73.22;100235.16;5008646;28;20052;-39
2022/11/25 01:13:33;;;;;;;6.85;3.20;;;;;;;-2.97;73.21;100226.69;5007156;28;20045;-40
2022/11/25 01:16:06;;;;;;;5.72;3.38;;;;;;;-2.98;73.46;100225.00;5026634;28;20056;-39
2022/11/25 01:18:32;;;;;;;9.90;4.00;;;;;;;-2.93;73.17;100237.00;5020370;28;20140;-40
2022/11/25 01:21:12;;;;;;;6.53;3.13;;;;;;;-2.93;73.34;100236.16;5042733;28;20495;-40
2022/11/25 01:23:39;;;;;;;10.15;4.18;;;;;;;-3.10;73.52;100200.94;5021269;28;20052;-40
2022/11/25 01:26:07;;;;;;;9.45;3.40;;;;;;;-2.92;73.60;100237.84;5019868;28;20041;-39
2022/11/25 01:28:33;;;;;;;8.02;3.63;;;;;;;-2.95;73.57;100241.19;5021130;28;20478;-39
2022/11/25 01:31:04;;;;;;;7.47;3.15;;;;;;;-2.97;73.75;100241.94;5019339;28;20040;-38
2022/11/25 01:33:33;;;;;;;9.02;4.03;;;;;;;-2.96;73.62;100248.78;5003770;28;20041;-39
2022/11/25 01:36:04;;;;;;;8.13;3.78;;;;;;;-3.23;73.81;100197.97;5017801;28;20428;-39
2022/11/25 01:38:31;;;;;;;9.40;3.63;;;;;;;-2.93;73.71;100247.16;5019045;28;20033;-39
2022/11/25 01:40:57;;;;;;;7.65;3.35;;;;;;;-3.09;73.88;100215.34;5023440;28;20047;-40
2022/11/25 01:43:24;;;;;;;7.97;3.65;;;;;;;-2.91;74.03;100250.63;5019909;28;20045;-41
2022/11/25 01:45:50;;;;;;;7.55;3.55;;;;;;;-2.92;73.88;100250.56;5011921;28;20064;-40
2022/11/25 01:48:29;;;;;;;7.05;3.65;;;;;;;-2.92;73.99;100251.44;5008964;28;20474;-38
2022/11/25 01:50:55;;;;;;;6.18;2.92;;;;;;;-2.93;74.04;100246.34;5024628;28;20120;-39
2022/11/25 01:53:22;;;;;;;10.05;3.90;;;;;;;-2.92;74.35;100256.53;5028501;28;20045;-40
2022/11/25 01:55:53;;;;;;;7.65;3.20;;;;;;;-2.90;74.16;100259.13;5028562;28;20037;-39
2022/11/25 01:58:32;;;;;;;8.90;3.60;;;;;;;-2.95;74.06;100250.50;5028612;28;20059;-39
2022/11/25 02:00:59;;;;;;;9.32;3.70;;;;;;;-2.95;74.34;100258.13;5028600;28;20052;-39
2022/11/25 02:03:34;;;;;;;7.93;3.38;;;;;;;-3.10;74.23;100233.13;4995641;28;20044;-39
2022/11/25 02:06:24;;;;;;;7.18;3.45;;;;;;;-2.87;74.34;100269.38;5012098;28;20049;-39
2022/11/25 02:08:53;;;;;;;11.02;3.97;;;;;;;-2.85;74.17;100275.38;5020748;28;20112;-39
2022/11/25 02:11:20;;;;;;;7.57;3.55;;;;;;;-2.93;74.19;100271.78;5011744;28;20493;-38
2022/11/25 02:13:48;;;;;;;7.38;3.67;;;;;;;-2.94;74.45;100267.50;5029781;28;20347;-38
2022/11/25 02:16:14;;;;;;;7.55;3.75;;;;;;;-2.98;74.31;100255.50;5027879;28;20060;-38
2022/11/25 02:18:41;;;;;;;7.55;3.65;;;;;;;-2.90;73.79;100267.63;5019173;28;20049;-39
2022/11/25 02:21:08;;;;;;;8.95;3.70;;;;;;;-2.91;74.27;100267.56;5047756;28;20048;-40
2022/11/25 02:24:09;;;;;;;8.55;3.70;;;;;;;-2.92;74.37;100265.84;5013744;28;20046;-39
2022/11/25 02:26:35;;;;;;;7.72;3.22;;;;;;;-2.93;73.93;100259.88;5019641;28;20107;-40
2022/11/25 02:29:02;;;;;;;8.27;3.75;;;;;;;-2.95;74.46;100265.75;5011027;28;20102;-40
2022/11/25 02:31:30;;;;;;;6.53;4.03;;;;;;;-2.91;74.56;100265.03;5027625;28;20485;-40
2022/11/25 02:33:56;;;;;;;9.07;4.13;;;;;;;-2.91;74.45;100268.44;5028338;28;20045;-40
2022/11/25 02:36:22;;;;;;;9.23;3.67;;;;;;;-2.89;74.15;100271.91;5029491;28;20045;-39
2022/11/25 02:39:02;;;;;;;8.32;3.63;;;;;;;-2.83;74.49;100263.59;5012338;28;20122;-40
2022/11/25 02:41:38;;;;;;;9.25;3.97;;;;;;;-2.78;74.46;100259.47;5028108;28;20045;-40
2022/11/25 02:44:05;;;;;;;8.00;3.95;;;;;;;-2.76;74.38;100268.88;5028229;28;20151;-38
2022/11/25 02:46:32;;;;;;;8.60;4.03;;;;;;;-2.72;74.38;100262.19;5028148;28;20076;-40
2022/11/25 02:49:01;;;;;;;9.45;4.05;;;;;;;-2.73;74.64;100268.97;5011642;28;20044;-40
2022/11/25 02:51:30;;;;;;;8.32;4.38;;;;;;;-2.71;74.56;100263.91;5039055;28;20049;-38
2022/11/25 02:53:59;;;;;;;9.18;3.90;;;;;;;-2.70;74.71;100261.41;4995637;28;20041;-38
2022/11/25 02:56:29;;;;;;;10.10;4.45;;;;;;;-2.71;74.54;100264.75;5011935;28;20052;-39
2022/11/25 02:58:56;;;;;;;9.63;4.53;;;;;;;-2.95;74.33;100227.59;5044602;28;20040;-39
2022/11/25 03:01:25;;;;;;;13.35;4.28;;;;;;;-2.76;74.31;100271.41;5044544;28;20054;-39
2022/11/25 03:03:51;;;;;;;9.48;4.18;;;;;;;-2.80;74.19;100269.59;5044163;28;20037;-39
2022/11/25 03:06:17;;;;;;;9.20;4.88;;;;;;;-2.74;74.43;100277.41;5044292;28;20041;-38
2022/11/25 03:08:43;;;;;;;7.78;4.00;;;;;;;-2.85;74.46;100260.97;5027670;28;20128;-39
2022/11/25 03:11:11;;;;;;;8.50;4.27;;;;;;;-2.86;74.73;100260.94;5011845;28;20199;-38
2022/11/25 03:13:37;;;;;;;10.27;4.30;;;;;;;-2.71;74.48;100289.34;5027730;28;20123;-40
2022/11/25 03:16:03;;;;;;;10.70;4.40;;;;;;;-2.70;74.39;100288.53;5029122;28;20550;-39
2022/11/25 03:18:29;;;;;;;10.32;4.32;;;;;;;-2.69;74.24;100288.59;5027866;28;20590;-39
2022/11/25 03:20:55;;;;;;;9.57;4.75;;;;;;;-2.68;73.97;100282.69;5043963;28;20057;-41
2022/11/25 03:23:23;;;;;;;9.98;4.78;;;;;;;-2.67;74.19;100296.28;5044212;28;20045;-40
2022/11/25 03:25:52;;;;;;;9.63;4.90;;;;;;;-2.67;74.58;100306.47;5044149;28;20033;-39
2022/11/25 03:28:18;;;;;;;10.07;4.43;;;;;;;-2.68;74.42;100304.72;5028849;28;20288;-39
2022/11/25 03:30:45;;;;;;;11.27;4.10;;;;;;;-2.68;74.14;100305.59;5028880;28;20037;-39
2022/11/25 03:33:11;;;;;;;9.43;4.03;;;;;;;-2.64;74.02;100319.25;5027878;28;20037;-39
2022/11/25 03:35:38;;;;;;;10.80;4.90;;;;;;;-2.62;74.07;100315.06;5032362;28;20038;-40
2022/11/25 03:38:04;;;;;;;12.10;4.72;;;;;;;-2.61;74.07;100317.66;5011638;28;20524;-39
2022/11/25 03:40:33;;;;;;;13.80;4.70;;;;;;;-2.62;74.24;100310.81;5025625;28;20517;-39
2022/11/25 03:43:00;;;;;;;9.18;4.07;;;;;;;-2.60;73.86;100323.59;5051223;28;20037;-41
2022/11/25 03:45:27;;;;;;;11.02;4.43;;;;;;;-2.52;73.65;100328.91;5051200;28;20067;-40
2022/11/25 03:47:55;;;;;;;10.07;4.40;;;;;;;-2.53;73.65;100327.19;5051115;28;20041;-39
2022/11/25 03:50:21;;;;;;;8.27;4.10;;;;;;;-2.61;73.62;100329.50;5042411;28;20037;-38
2022/11/25 03:52:47;;;;;;;8.90;4.47;;;;;;;-2.59;73.81;100333.84;5050995;28;20045;-40
2022/11/25 03:55:13;;;;;;;8.98;4.10;;;;;;;-2.57;73.72;100329.66;5051000;28;20057;-39
2022/11/25 03:57:41;;;;;;;12.65;4.97;;;;;;;-2.83;73.57;100281.38;5050751;28;20045;-39
2022/11/25 04:00:08;;;;;;;12.48;5.18;;;;;;;-2.49;73.58;100336.63;5034305;28;20534;-39
2022/11/25 04:02:55;;;;;;;9.95;4.68;;;;;;;-2.52;73.28;100334.88;5037126;28;20059;-39
2022/11/25 04:05:21;;;;;;;13.20;5.22;;;;;;;-2.49;73.35;100346.81;5029694;28;20144;-41
2022/11/25 04:07:48;;;;;;;9.77;4.50;;;;;;;-2.82;73.18;100290.72;5030851;28;20156;-40
2022/11/25 04:10:14;;;;;;;7.55;4.22;;;;;;;-2.52;73.15;100347.59;4997947;28;20500;-39
2022/11/25 04:12:47;;;;;;;12.40;4.53;;;;;;;-2.62;73.51;100343.06;5030781;28;20048;-40
2022/11/25 04:15:20;;;;;;;11.80;4.88;;;;;;;-2.62;73.55;100349.00;5030847;28;20052;-39
2022/11/25 04:17:50;;;;;;;10.82;4.25;;;;;;;-2.60;73.62;100351.59;5014562;28;20045;-40
2022/11/25 04:20:16;;;;;;;12.18;5.25;;;;;;;-2.58;73.68;100355.06;5030669;28;20064;-41
2022/11/25 04:22:48;;;;;;;9.30;4.68;;;;;;;-2.52;73.73;100346.75;5030717;28;20038;-40
2022/11/25 04:25:18;;;;;;;13.90;5.13;;;;;;;-2.52;73.59;100349.28;5030734;28;20321;-40
2022/11/25 04:27:45;;;;;;;8.95;4.45;;;;;;;-2.53;73.48;100345.88;5030463;28;20037;-39
2022/11/25 04:30:12;;;;;;;10.85;4.85;;;;;;;-2.51;73.67;100351.03;5014266;28;20124;-40
2022/11/25 04:32:40;;;;;;;11.10;4.10;;;;;;;-2.53;73.68;100348.41;5030064;28;20045;-41
2022/11/25 04:35:08;;;;;;;10.27;4.78;;;;;;;-2.67;73.49;100324.25;4997824;28;20053;-40
2022/11/25 04:37:35;;;;;;;9.75;4.47;;;;;;;-2.52;73.27;100355.25;5030321;28;20552;-41
2022/11/25 04:40:02;;;;;;;10.13;4.63;;;;;;;-2.55;73.06;100362.78;5031564;28;20065;-40
2022/11/25 04:42:33;;;;;;;11.23;4.97;;;;;;;-2.69;72.99;100333.53;5030550;28;20033;-40
2022/11/25 04:45:11;;;;;;;12.18;4.70;;;;;;;-2.52;72.99;100360.34;5030264;28;20060;-40
2022/11/25 04:47:38;;;;;;;10.18;4.50;;;;;;;-2.50;72.92;100366.31;5029324;28;20136;-39
2022/11/25 04:50:07;;;;;;;9.27;4.55;;;;;;;-2.48;72.98;100374.00;5037879;28;20056;-41
2022/11/25 04:52:42;;;;;;;10.68;4.53;;;;;;;-2.60;72.72;100361.78;5049960;28;20032;-41
2022/11/25 04:55:09;;;;;;;12.85;4.78;;;;;;;-2.56;73.04;100377.19;5042283;28;20049;-40
2022/11/25 04:57:35;;;;;;;11.23;4.82;;;;;;;-2.75;72.94;100339.31;5029361;28;20048;-40
2022/11/25 05:00:03;;;;;;;11.88;4.40;;;;;;;-2.53;72.94;100376.41;5031216;28;20041;-40
2022/11/25 05:02:30;;;;;;;8.88;4.60;;;;;;;-2.51;72.86;100369.66;5030758;28;20041;-39
2022/11/25 05:05:00;;;;;;;11.80;4.45;;;;;;;-2.52;72.89;100370.53;5029839;28;20149;-40
2022/11/25 05:07:29;;;;;;;10.65;4.45;;;;;;;-2.54;72.93;100371.28;5013342;28;20041;-41
2022/11/25 05:09:56;;;;;;;12.20;4.82;;;;;;;-2.74;73.06;100343.56;5029572;28;20040;-40
2022/11/25 05:12:51;;;;;;;9.52;4.50;;;;;;;-2.81;73.10;100328.94;5024191;28;20119;-40
2022/11/25 05:15:20;;;;;;;12.85;4.85;;;;;;;-2.62;73.00;100365.97;5030597;28;20090;-40
2022/11/25 05:17:47;;;;;;;10.55;4.47;;;;;;;-2.80;73.30;100345.94;5012658;28;20045;-39
2022/11/25 05:20:15;;;;;;;12.13;4.13;;;;;;;-2.59;73.35;100374.56;5012746;28;20034;-41
2022/11/25 05:22:41;;;;;;;11.93;4.60;;;;;;;-2.63;73.03;100375.28;5029627;28;20040;-42
2022/11/25 05:25:12;;;;;;;11.00;5.22;;;;;;;-2.60;73.23;100374.50;5013602;28;20056;-40
2022/11/25 05:27:49;;;;;;;13.30;5.38;;;;;;;-2.58;72.95;100371.19;5029307;28;20037;-40
2022/11/25 05:30:15;;;;;;;9.43;4.38;;;;;;;-2.60;72.96;100371.97;5028939;28;20033;-40
2022/11/25 05:32:43;;;;;;;13.90;4.60;;;;;;;-2.61;73.21;100378.72;5028431;28;20041;-41
2022/11/25 05:35:10;;;;;;;9.88;4.40;;;;;;;-2.58;72.90;100372.88;5008853;28;20034;-39
2022/11/25 05:37:38;;;;;;;9.18;4.28;;;;;;;-2.57;72.68;100372.94;5010629;28;20069;-39
2022/11/25 05:40:05;;;;;;;10.02;3.63;;;;;;;-2.79;72.70;100355.31;4999888;28;20048;-39
2022/11/25 05:42:50;;;;;;;10.60;4.22;;;;;;;-2.64;72.75;100378.66;5049264;28;20067;-39
2022/11/25 05:45:18;;;;;;;7.63;3.35;;;;;;;-2.61;72.58;100385.50;5048541;28;20072;-40
2022/11/25 05:47:44;;;;;;;11.48;4.60;;;;;;;-2.62;72.51;100379.53;5032348;28;20086;-40
2022/11/25 05:50:14;;;;;;;10.60;4.15;;;;;;;-2.57;72.45;100390.75;5038143;28;20059;-40
2022/11/25 05:52:40;;;;;;;8.43;3.65;;;;;;;-2.57;72.69;100392.44;5048031;28;20033;-41
2022/11/25 05:55:07;;;;;;;12.82;4.57;;;;;;;-2.57;72.57;100388.22;5048880;28;20064;-42
2022/11/25 05:57:33;;;;;;;11.95;4.18;;;;;;;-2.52;72.29;100387.47;5047964;28;20075;-41
2022/11/25 06:00:05;;;;;;;10.90;4.15;;;;;;;-2.64;72.30;100367.59;5048096;28;20094;-40
2022/11/25 06:02:50;;;;;;;10.35;3.97;;;;;;;-2.48;72.07;100392.69;5046888;28;20045;-42
2022/11/25 06:05:16;;;;;;;10.82;3.88;;;;;;;-2.63;72.05;100366.78;5011883;28;20053;-41
2022/11/25 06:07:43;;;;;;;8.73;3.30;;;;;;;-2.48;72.04;100402.88;5012517;28;20042;-41
2022/11/25 06:10:09;;;;;;;8.45;3.67;;;;;;;-2.43;72.36;100395.38;5028903;28;20041;-42
2022/11/25 06:12:38;;;;;;;10.32;4.10;;;;;;;-2.76;71.73;100335.03;5012924;28;20044;-42
2022/11/25 06:15:05;;;;;;;10.50;4.25;;;;;;;-2.40;72.01;100395.44;5028316;28;20042;-42
2022/11/25 06:17:33;;;;;;;7.38;3.25;;;;;;;-2.35;72.04;100402.38;5028097;28;20315;-39
2022/11/25 06:20:08;;;;;;;8.32;4.15;;;;;;;-2.30;71.63;100395.75;5029713;28;20059;-41
2022/11/25 06:22:34;;;;;;;9.45;4.13;;;;;;;-2.24;71.55;100400.16;4995447;28;20100;-40
2022/11/25 06:25:00;;;;;;;11.32;4.18;;;;;;;-2.22;71.54;100411.25;5011289;28;20505;-39
2022/11/25 06:27:28;;;;;;;11.13;4.18;;;;;;;-2.26;71.30;100405.22;5028082;28;20052;-43
2022/11/25 06:29:54;;;;;;;9.85;3.92;;;;;;;-2.19;71.27;100414.75;5045106;28;20393;-41
2022/11/25 06:32:20;;;;;;;10.32;3.90;;;;;;;-2.14;71.30;100412.31;5028516;28;20107;-39
2022/11/25 06:35:02;;;;;;;9.60;3.75;;;;;;;-2.07;71.21;100418.47;5029974;28;20057;-41
2022/11/25 06:37:46;;;;;;;11.00;4.35;;;;;;;-2.06;70.90;100420.19;5014523;28;20053;-40
2022/11/25 06:40:12;;;;;;;14.23;4.63;;;;;;;-2.08;71.01;100425.22;5032533;28;20049;-40
2022/11/25 06:42:38;;;;;;;12.57;4.68;;;;;;;-2.06;70.72;100421.06;5031934;28;20103;-38
2022/11/25 06:45:05;;;;;;;10.13;4.18;;;;;;;-2.18;70.62;100400.31;5010992;28;20073;-41
2022/11/25 06:47:31;;;;;;;10.20;3.90;;;;;;;-2.02;70.56;100425.41;5029597;28;20045;-40
2022/11/25 06:49:57;;;;;;;11.20;4.15;;;;;;;-2.07;70.51;100424.41;5028012;28;20425;-40
2022/11/25 06:52:23;;;;;;;9.52;3.83;;;;;;;-1.98;70.45;100427.22;5027710;28;20053;-39
2022/11/25 06:54:50;;;;;;;9.77;4.03;;;;;;;-1.95;70.06;100421.34;5017997;28;20124;-39
2022/11/25 06:57:17;;;;;;;10.45;3.50;;;;;;;-1.94;69.76;100428.19;5022810;28;20073;-40
2022/11/25 06:59:44;;;;;;;8.95;3.47;;;;;;;-2.00;69.94;100418.69;5044389;28;20045;-40
2022/11/25 07:02:13;;;;;;;6.60;3.08;;;;;;;-2.04;69.92;100431.31;5022155;28;20053;-42
2022/11/25 07:04:39;;;;;;;9.35;3.88;;;;;;;-2.28;69.54;100405.97;5017027;28;20034;-40
2022/11/25 07:07:06;;;;;;;12.90;5.28;;;;;;;-2.11;69.55;100439.56;5002225;28;20508;-40
2022/11/25 07:09:32;;;;;;;11.27;4.85;;;;;;;-2.15;69.36;100438.63;5019396;28;20045;-39
2022/11/25 07:11:58;;;;;;;12.13;4.53;;;;;;;-2.11;69.67;100439.56;4988207;28;20622;-40
2022/11/25 07:14:24;;;;;;;10.45;3.63;;;;;;;-2.09;69.66;100446.44;5014451;28;20136;-41
2022/11/25 07:16:50;;;;;;;7.88;3.95;;;;;;;-2.10;69.47;100441.31;5021946;28;20417;-40
2022/11/25 07:19:17;;;;;;;6.47;3.20;;;;;;;-2.11;69.39;100450.63;5026071;28;20042;-40
2022/11/25 07:21:44;;;;;;;10.10;3.97;;;;;;;-2.09;69.28;100455.78;5021772;28;20188;-43
2022/11/25 07:24:12;;;;;;;12.85;4.18;;;;;;;-2.16;69.26;100440.31;5022953;28;20047;-40
2022/11/25 07:26:40;;;;;;;7.35;3.78;;;;;;;-2.06;69.29;100451.63;5038904;28;20103;-40
2022/11/25 07:29:08;;;;;;;10.57;4.13;;;;;;;-2.06;69.33;100458.41;5023435;28;20094;-39
2022/11/25 07:31:40;;;;;;;8.80;3.45;;;;;;;-2.04;69.30;100447.41;5022763;28;20100;-40
2022/11/25 07:34:10;;;;;;;11.73;4.63;;;;;;;-2.04;69.05;100449.97;5008847;28;20072;-39
2022/11/25 07:36:36;;;;;;;9.35;3.60;;;;;;;-2.10;69.12;100459.16;5023419;28;20057;-41
2022/11/25 07:39:05;;;;;;;10.88;4.13;;;;;;;-2.11;69.17;100460.81;5022325;28;20038;-41
2022/11/25 07:41:31;;;;;;;12.05;4.28;;;;;;;-2.11;69.29;100470.16;5025836;28;20077;-41
2022/11/25 07:44:02;;;;;;;11.35;4.38;;;;;;;-2.28;69.42;100434.88;5026858;28;20523;-39
2022/11/25 07:46:32;;;;;;;9.07;3.80;;;;;;;-2.05;69.13;100473.75;5009831;28;20045;-41
2022/11/25 07:49:00;;;;;;;10.13;3.95;;;;;;;-2.00;69.28;100468.78;5031476;28;20428;-40
2022/11/25 07:51:30;;;;;;;10.95;4.40;;;;;;;-1.97;69.22;100477.34;5033569;28;20515;-40
2022/11/25 07:53:57;;;;;;;10.40;3.95;;;;;;;-1.96;69.11;100466.34;5030297;28;20045;-39
2022/11/25 07:56:23;;;;;;;9.23;4.22;;;;;;;-1.92;69.12;100469.84;5030524;28;20045;-40
2022/11/25 07:58:49;;;;;;;15.68;6.32;;;;;;;-1.92;68.78;100470.69;5030628;28;20424;-40
2022/11/25 08:01:17;;;;;;;9.88;3.78;;;;;;;-1.91;69.23;100477.53;5027583;28;20048;-42
2022/11/25 08:03:44;;;;;;;10.70;4.93;;;;;;;-1.90;69.08;100474.19;5023756;28;20056;-40
2022/11/25 08:06:12;;;;;;;11.18;3.90;;;;;;;-2.15;68.94;100444.56;5029572;28;20041;-39
2022/11/25 08:08:40;;;;;;;8.13;3.33;;;;;;;-2.05;68.93;100473.75;5031426;28;20033;-40
2022/11/25 08:11:11;;;;;;;11.90;3.67;;;;;;;-2.08;68.94;100473.63;5030675;28;20041;-42
2022/11/25 08:13:37;;;;;;;10.35;3.78;;;;;;;-2.07;68.96;100479.59;5028463;28;20420;-38
2022/11/25 08:16:03;;;;;;;9.07;4.10;;;;;;;-2.10;69.13;100480.38;5026750;28;20129;-40
2022/11/25 08:18:29;;;;;;;8.48;3.60;;;;;;;-2.02;69.25;100483.13;5028590;28;20100;-40
2022/11/25 08:21:06;;;;;;;12.98;4.00;;;;;;;-1.99;69.14;100486.63;5027705;28;20510;-40
2022/11/25 08:23:33;;;;;;;8.90;3.15;;;;;;;-1.97;69.19;100497.75;5044626;28;20033;-41
2022/11/25 08:26:07;;;;;;;12.57;3.90;;;;;;;-1.99;69.16;100484.09;5029295;28;20045;-39
2022/11/25 08:28:34;;;;;;;9.32;3.83;;;;;;;-2.12;69.37;100476.91;5012778;28;20080;-40
2022/11/25 08:31:05;;;;;;;9.40;3.95;;;;;;;-1.99;69.30;100488.34;5029044;28;20116;-39
2022/11/25 08:33:31;;;;;;;7.28;3.20;;;;;;;-1.94;69.14;100486.78;5024910;28;20478;-40
2022/11/25 08:35:57;;;;;;;9.52;4.07;;;;;;;-2.02;69.07;100475.50;5003130;28;20068;-41
2022/11/25 08:38:23;;;;;;;9.80;3.88;;;;;;;-1.87;69.07;100492.09;5037245;28;20339;-39
2022/11/25 08:40:49;;;;;;;12.18;4.30;;;;;;;-1.91;68.72;100499.59;5022292;28;20463;-40
2022/11/25 08:43:16;;;;;;;11.10;3.83;;;;;;;-1.97;68.69;100496.88;5020292;28;20049;-40
2022/11/25 08:45:42;;;;;;;9.38;3.40;;;;;;;-1.95;68.88;100492.69;4986257;28;20053;-39
2022/11/25 08:48:08;;;;;;;11.95;3.83;;;;;;;-2.07;68.86;100466.84;5019923;28;20041;-39
2022/11/25 08:50:33;;;;;;;9.57;4.22;;;;;;;-1.90;68.68;100501.34;5024759;28;20045;-41
2022/11/25 08:53:00;;;;;;;11.77;3.70;;;;;;;-1.83;68.88;100498.13;5021646;28;20040;-40
2022/11/25 08:55:26;;;;;;;13.35;4.20;;;;;;;-1.78;68.74;100501.69;5019225;28;20038;-39
2022/11/25 08:57:55;;;;;;;11.20;3.85;;;;;;;-1.72;68.57;100502.69;5021082;28;20049;-41
2022/11/25 09:00:21;;;;;;;12.27;4.25;;;;;;;-1.80;68.65;100473.59;5020047;28;20038;-39
2022/11/25 09:02:47;;;;;;;12.13;3.83;;;;;;;-1.56;68.80;100505.66;5022089;28;20048;-43
2022/11/25 09:05:15;;;;;;;10.10;4.10;;;;;;;-1.50;68.60;100506.72;5019614;28;20048;-41
2022/11/25 09:07:41;;;;;;;11.60;3.38;;;;;;;-1.58;68.40;100500.56;5021002;28;20041;-40
2022/11/25 09:10:11;;;;;;;12.27;3.90;;;;;;;-1.53;68.52;100506.63;5019086;28;20057;-40
2022/11/25 09:12:38;;;;;;;7.53;3.67;;;;;;;-1.48;68.45;100499.97;5018491;28;20437;-39
2022/11/25 09:15:04;;;;;;;10.93;4.10;;;;;;;-1.44;67.99;100509.44;5030825;28;20045;-39
2022/11/25 09:17:30;;;;;;;8.85;4.05;;;;;;;-1.42;68.29;100510.34;5018368;28;20041;-40
2022/11/25 09:19:56;;;;;;;10.35;4.30;;;;;;;-1.46;67.81;100503.41;4986645;28;20069;-42
2022/11/25 09:22:22;;;;;;;9.95;3.80;;;;;;;-1.38;68.08;100512.16;5028407;28;20192;-41
2022/11/25 09:24:48;;;;;;;6.93;3.70;;;;;;;-1.38;68.08;100506.19;5029876;28;20045;-40
2022/11/25 09:27:14;;;;;;;9.88;3.75;;;;;;;-1.41;68.12;100509.50;5019657;28;20057;-40
2022/11/25 09:29:40;;;;;;;8.63;3.67;;;;;;;-1.41;68.20;100508.63;5028962;28;20488;-39
2022/11/25 09:32:06;;;;;;;8.77;3.10;;;;;;;-1.43;67.90;100506.06;5030227;28;20421;-40
2022/11/25 09:34:31;;;;;;;8.80;3.88;;;;;;;-1.47;67.84;100505.94;5028076;28;20056;-41
2022/11/25 09:36:57;;;;;;;10.68;4.00;;;;;;;-1.43;68.27;100500.97;5026534;28;20402;-41
2022/11/25 09:39:28;;;;;;;18.42;6.90;;;;;;;-1.44;67.98;100503.47;5028116;28;20048;-42
2022/11/25 09:48:31;;;;;;;10.50;3.90;;;;;;;-1.45;67.94;100512.78;5027812;28;20037;-42
2022/11/25 09:51:29;;;;;;;9.38;4.30;;;;;;;-1.43;68.13;100502.66;5042445;28;20047;-41
2022/11/25 09:54:07;;;;;;;7.32;3.55;;;;;;;-1.48;67.92;100506.75;5008717;28;20060;-41
2022/11/25 09:56:42;;;;;;;11.23;3.95;;;;;;;-1.45;68.20;100502.59;5027613;28;20052;-43
2022/11/25 09:59:19;;;;;;;8.73;3.70;;;;;;;-1.39;68.11;100502.75;5026713;28;20056;-41
2022/11/25 10:01:49;;;;;;;13.23;5.70;;;;;;;-1.54;68.26;100468.34;5028690;28;20531;-41
2022/11/25 10:04:39;;;;;;;12.02;4.07;;;;;;;-1.33;68.31;100502.94;5026929;28;20060;-42
2022/11/25 10:07:13;;;;;;;9.23;4.22;;;;;;;-1.33;68.23;100499.53;5026237;28;20041;-41
2022/11/25 10:09:39;;;;;;;8.90;4.60;;;;;;;-1.33;68.24;100510.59;5027590;28;20045;-40
2022/11/25 10:12:24;;;;;;;8.85;4.63;;;;;;;-1.31;68.40;100503.81;5027499;28;20041;-42
2022/11/25 10:15:00;;;;;;;11.23;4.70;;;;;;;-1.36;68.02;100507.94;5021387;28;20049;-39
2022/11/25 10:17:38;;;;;;;8.95;3.90;;;;;;;-1.46;68.25;100507.66;5015289;28;20041;-40
2022/11/25 10:20:13;;;;;;;8.65;4.00;;;;;;;-1.65;68.26;100482.47;5021739;28;20521;-40
2022/11/25 10:22:41;;;;;;;11.73;4.20;;;;;;;-1.53;68.37;100514.28;5028515;28;20055;-39
2022/11/25 10:25:15;;;;;;;9.90;4.45;;;;;;;-1.55;68.57;100522.69;5044715;28;20041;-40
2022/11/25 10:27:45;;;;;;;9.30;5.13;;;;;;;-1.54;68.56;100532.94;5028185;28;20525;-40
2022/11/25 10:30:20;;;;;;;8.30;4.35;;;;;;;-1.56;68.40;100521.84;5027907;28;20041;-41
2022/11/25 10:33:19;;;;;;;9.27;4.18;;;;;;;-1.56;68.53;100516.75;5026605;28;20512;-39
2022/11/25 10:35:52;;;;;;;7.90;4.13;;;;;;;-1.58;68.61;100528.59;5024485;28;20045;-40
2022/11/25 10:38:35;;;;;;;12.32;4.90;;;;;;;-1.62;68.60;100529.31;5028156;28;20041;-40
2022/11/25 10:41:03;;;;;;;9.75;4.35;;;;;;;-1.72;68.46;100506.94;5029352;28;20102;-40
2022/11/25 10:43:30;;;;;;;9.15;4.53;;;;;;;-1.81;68.79;100496.50;5025630;28;20114;-41
2022/11/25 10:46:11;;;;;;;9.35;4.70;;;;;;;-1.57;68.84;100537.94;5030775;28;20058;-41
2022/11/25 10:48:55;;;;;;;8.07;4.22;;;;;;;-1.64;68.70;100547.94;5036050;28;20528;-41
2022/11/25 10:51:30;;;;;;;10.27;4.63;;;;;;;-1.69;68.87;100544.41;5018319;28;20041;-41
2022/11/25 10:54:10;;;;;;;11.55;4.82;;;;;;;-1.65;69.07;100541.97;5033796;28;20543;-41
2022/11/25 10:56:47;;;;;;;9.13;4.30;;;;;;;-1.76;68.74;100516.19;5033329;28;20092;-41
2022/11/25 10:59:33;;;;;;;7.57;4.18;;;;;;;-1.60;68.79;100537.00;5035147;28;20033;-41
2022/11/25 11:02:13;;;;;;;7.22;3.17;;;;;;;-1.67;69.13;100547.88;5022410;28;20128;-39
2022/11/25 11:04:53;;;;;;;7.47;3.45;;;;;;;-1.95;68.89;100521.59;5030706;28;20045;-39
2022/11/25 11:07:18;;;;;;;6.13;3.28;;;;;;;-1.95;69.05;100524.13;5035913;28;20077;-42
2022/11/25 11:09:47;;;;;;;8.52;3.40;;;;;;;-1.96;69.03;100541.94;5033729;28;20076;-40
2022/11/25 11:12:14;;;;;;;8.50;3.83;;;;;;;-1.97;69.10;100556.34;5028918;28;20099;-39
2022/11/25 11:14:40;;;;;;;10.18;4.15;;;;;;;-1.98;69.14;100557.16;5032944;28;20049;-42
2022/11/25 11:17:23;;;;;;;7.32;3.75;;;;;;;-1.97;69.39;100563.97;5033782;28;20045;-41
2022/11/25 11:20:06;;;;;;;9.10;4.05;;;;;;;-1.95;69.10;100564.91;5037425;28;20040;-40
2022/11/25 11:22:33;;;;;;;8.32;4.05;;;;;;;-2.10;69.05;100533.00;5035291;28;20102;-41
2022/11/25 11:25:28;;;;;;;9.07;3.63;;;;;;;-1.95;69.25;100559.81;5033714;28;20504;-41
2022/11/25 11:27:54;;;;;;;7.85;3.75;;;;;;;-2.00;69.13;100569.00;5025957;28;20073;-39
2022/11/25 11:30:23;;;;;;;8.52;3.40;;;;;;;-2.04;69.59;100561.22;5035104;28;20551;-40
2022/11/25 11:33:05;;;;;;;9.07;3.72;;;;;;;-2.02;69.42;100564.66;5034904;28;20071;-41
2022/11/25 11:35:50;;;;;;;7.38;3.67;;;;;;;-2.03;69.62;100565.47;5030810;28;20056;-41
2022/11/25 11:38:32;;;;;;;8.95;3.90;;;;;;;-2.04;69.59;100568.88;5025367;28;20044;-40
2022/11/25 11:41:08;;;;;;;7.40;3.70;;;;;;;-2.09;69.82;100568.69;5026035;28;20119;-40
2022/11/25 11:43:59;;;;;;;6.63;3.28;;;;;;;-2.03;69.70;100568.91;5026194;28;20819;-41
2022/11/25 11:46:44;;;;;;;7.35;3.15;;;;;;;-2.04;69.98;100571.41;5025186;28;20049;-41